Airfield :
LOGIN :

Register | Disclaimer

   EN    FR    IT 

 










Legend :    VFR   Marginal VFR   IFR   Intensive IFR   Very Intensive IFR
Visi :
Ceiling :
>= 8 km
>= 3000ft
5 to 8 km
1000 to 3000 ft
1500m to 5 km
500 to 1000 ft
800 to 1500m
200 to 500 ft
< 800m
< 200 ft
Symbols :   Thunderstorms  Fog  Heavy snow  Heavy precipitations  Wind > 20 kt
SIGMETs :     Misc.  Thunderstorms  Icing  Turbulence  Mountain Waves  Volcanic Ashes







- Airport Elevation : 268 ft
- IATA code : BFS
- Download approach charts


EGAA - Belfast Aldergrove

CURRENT METAR :
  • 170720Z 24018KT 9999 BKN013 10/09 Q1008

EXPIRED METARs :
  • 170650Z 23020G32KT 9999 BKN012 10/08 Q1008
  • 170620Z 24020KT 9999 BKN012 10/09 Q1008
  • 170550Z 24019KT 9999 BKN013 10/08 Q1007
  • 170520Z 24021KT 9999 BKN013 10/08 Q1007
  • 170450Z 23020KT 9999 SCT013 OVC020 10/08 Q1006

TAF AMD TAF EGAA
Valid from the 17 at 06:00 until the 18 at 06:00 UTC


170603Z 1706/1806 21020G30KT 9999 FEW012 SCT025
BECMG 1706/1709 25015KT
TEMPO 1706/1712 4000 -RADZ RA BKN012
PROB30
TEMPO 1712/1715 7000 -SHRA
BECMG 1716/1719 34005KT
PROB40 1800/1806 3000 BR
No reported NOTAMs for that airfield.
4 SIGMETs reported for the Scottish FIR (EGPX) :
 
Severe turbulence
EGPX SIGMET 06 VALID 170553/170900 EGRR
EGPX SCOTTISH FIR SEV TURB FCST E OF LINE N6100 W00800 - N5350 W00800 SFC/FL060 MOV E 15KT NC=
SIGMET 04 cancelation
EGPX SIGMET 05 VALID 170549/170900 EGRR
EGPX SCOTTISH FIR CNL SIGMET 04 170500/170900=
SIGMET 04  CANCELED :
Severe turbulence
EGPX SIGMET 04 VALID 170500/170900 EGRR
EGPX SCOTTISH FIR SEV TURB FCST E OF LINE N6100 W00815 - N5520 W00815 SFC/FL060 MOV E 15KT NC=
Severe mountain waves
EGPX SIGMET 03 VALID 170500/170900 EGRR
EGPX SCOTTISH FIR SEV MTW FCST WI N5500 E00115 - N5500 W00530 - N5355 W00530 - N5425 W00810 - N6100 W00810 - N6100 E00000 - N6000 E00000 - N5914 E00117 - N5500 E00115 FL030/200 STNR WKN=



MET'MAP, your aeronautical weather chart ! - Copyright ORBIFLY December 2007 - Disclaimer

ORBIFLY MET'MAP TEAM :

Programming & Development : Alexandra Zaïnal
Concept & Development : Baudouin d'Aumeries
Co-Development & Prog : Marc-Olivier Méhu
Technical & hardware support : Manuel Goepfert

Contact : metmap@orbifly.com




SOURCES & CREDITS :

   NOAA